Salt Lake City, Utah
Traffic Map
Current Weather Conditions
Salt Lake City, Utah
Few Clouds
Few Clouds
74°
Feels Like: 74°
Wind Chill: 74° Ceiling: Unl
Heat Index: 74° Visibility: 10mi
Dew Point: 18° Wind: 0mph
Humidity: 12% Direction: ° ()
Pressure: 30.08in Gusts: 0mph
Raw Report DataKSLC 302353Z 00000KT 10SM FEW110 FEW200 23/M08 A3008 RMK AO2 SLP158 T02331078 10233 20172 58014
Traffic Incident Summary
Active as of:
Severity:
Category:
InformationThere was an issue retrieving the traffic information for this location. Please try a different location or try again shortly.
Advertisements
Track Severe Weather on mobile